sensor_id;sensor_type;location;lat;lon;timestamp;temperature;humidity
18868;DHT22;9563;49.240;9.088;2023-02-20T00:00:17;8.00;99.90
18868;DHT22;9563;49.240;9.088;2023-02-20T00:02:46;8.00;99.90
18868;DHT22;9563;49.240;9.088;2023-02-20T00:05:14;8.00;99.90
18868;DHT22;9563;49.240;9.088;2023-02-20T00:07:42;8.10;99.90
18868;DHT22;9563;49.240;9.088;2023-02-20T00:10:10;8.10;99.90
18868;DHT22;9563;49.240;9.088;2023-02-20T00:12:37;8.10;99.90
18868;DHT22;9563;49.240;9.088;2023-02-20T00:15:05;8.10;99.90
18868;DHT22;9563;49.240;9.088;2023-02-20T00:17:32;8.10;99.90
18868;DHT22;9563;49.240;9.088;2023-02-20T00:19:59;8.10;99.90
18868;DHT22;9563;49.240;9.088;2023-02-20T00:22:26;8.20;99.90
18868;DHT22;9563;49.240;9.088;2023-02-20T00:24:54;8.10;99.90
18868;DHT22;9563;49.240;9.088;2023-02-20T00:27:21;8.20;99.90
18868;DHT22;9563;49.240;9.088;2023-02-20T00:29:48;8.20;99.90
18868;DHT22;9563;49.240;9.088;2023-02-20T00:32:15;8.20;99.90
18868;DHT22;9563;49.240;9.088;2023-02-20T00:34:42;8.20;99.90
18868;DHT22;9563;49.240;9.088;2023-02-20T00:37:09;8.20;99.90
18868;DHT22;9563;49.240;9.088;2023-02-20T00:39:35;8.20;99.90
18868;DHT22;9563;49.240;9.088;2023-02-20T00:42:04;8.20;99.90
18868;DHT22;9563;49.240;9.088;2023-02-20T00:44:31;8.20;99.90
18868;DHT22;9563;49.240;9.088;2023-02-20T00:46:58;8.10;99.90
18868;DHT22;9563;49.240;9.088;2023-02-20T00:49:25;8.10;99.90
18868;DHT22;9563;49.240;9.088;2023-02-20T00:51:51;8.10;99.90
18868;DHT22;9563;49.240;9.088;2023-02-20T00:54:18;8.00;99.90
18868;DHT22;9563;49.240;9.088;2023-02-20T00:56:45;8.00;99.90
18868;DHT22;9563;49.240;9.088;2023-02-20T00:59:13;8.00;99.90
18868;DHT22;9563;49.240;9.088;2023-02-20T01:01:40;7.90;99.90
18868;DHT22;9563;49.240;9.088;2023-02-20T01:04:07;7.90;99.90
18868;DHT22;9563;49.240;9.088;2023-02-20T01:06:34;7.80;99.90
18868;DHT22;9563;49.240;9.088;2023-02-20T01:09:01;7.70;99.90
18868;DHT22;9563;49.240;9.088;2023-02-20T01:11:28;7.70;99.90
18868;DHT22;9563;49.240;9.088;2023-02-20T01:13:55;7.60;99.90
18868;DHT22;9563;49.240;9.088;2023-02-20T01:16:23;7.60;99.90
18868;DHT22;9563;49.240;9.088;2023-02-20T01:18:50;7.60;99.90
18868;DHT22;9563;49.240;9.088;2023-02-20T01:21:17;7.60;99.90
18868;DHT22;9563;49.240;9.088;2023-02-20T01:23:44;7.60;99.90
18868;DHT22;9563;49.240;9.088;2023-02-20T01:26:11;7.60;99.90
18868;DHT22;9563;49.240;9.088;2023-02-20T01:28:58;7.50;99.90
18868;DHT22;9563;49.240;9.088;2023-02-20T01:31:29;7.50;99.90
18868;DHT22;9563;49.240;9.088;2023-02-20T01:33:56;7.40;99.90
18868;DHT22;9563;49.240;9.088;2023-02-20T01:36:22;7.30;99.90
18868;DHT22;9563;49.240;9.088;2023-02-20T01:38:50;7.30;99.90
18868;DHT22;9563;49.240;9.088;2023-02-20T01:41:17;7.30;99.90
18868;DHT22;9563;49.240;9.088;2023-02-20T01:43:45;7.20;99.90
18868;DHT22;9563;49.240;9.088;2023-02-20T01:46:45;7.10;99.90
18868;DHT22;9563;49.240;9.088;2023-02-20T01:49:15;7.10;99.90
18868;DHT22;9563;49.240;9.088;2023-02-20T01:51:46;7.00;99.90
18868;DHT22;9563;49.240;9.088;2023-02-20T01:54:17;7.00;99.90
18868;DHT22;9563;49.240;9.088;2023-02-20T01:56:45;6.90;99.90
18868;DHT22;9563;49.240;9.088;2023-02-20T01:59:13;6.90;99.90
18868;DHT22;9563;49.240;9.088;2023-02-20T02:01:40;6.90;99.90
18868;DHT22;9563;49.240;9.088;2023-02-20T02:04:10;6.90;99.90
18868;DHT22;9563;49.240;9.088;2023-02-20T02:06:40;6.90;99.90
18868;DHT22;9563;49.240;9.088;2023-02-20T02:09:13;6.90;99.90
18868;DHT22;9563;49.240;9.088;2023-02-20T02:11:41;6.80;99.90
18868;DHT22;9563;49.240;9.088;2023-02-20T02:14:08;6.80;99.90
18868;DHT22;9563;49.240;9.088;2023-02-20T02:16:41;6.70;99.90
18868;DHT22;9563;49.240;9.088;2023-02-20T02:19:25;6.70;99.90
18868;DHT22;9563;49.240;9.088;2023-02-20T02:25:35;6.70;99.90
18868;DHT22;9563;49.240;9.088;2023-02-20T02:36:55;6.60;99.90
18868;DHT22;9563;49.240;9.088;2023-02-20T02:39:34;6.60;99.90
18868;DHT22;9563;49.240;9.088;2023-02-20T02:42:08;6.60;99.90
18868;DHT22;9563;49.240;9.088;2023-02-20T02:44:43;6.60;99.90
18868;DHT22;9563;49.240;9.088;2023-02-20T02:47:16;6.60;99.90
18868;DHT22;9563;49.240;9.088;2023-02-20T02:49:48;6.60;99.90
18868;DHT22;9563;49.240;9.088;2023-02-20T02:52:20;6.60;99.90
18868;DHT22;9563;49.240;9.088;2023-02-20T02:55:01;6.60;99.90
18868;DHT22;9563;49.240;9.088;2023-02-20T02:57:28;6.60;99.90
18868;DHT22;9563;49.240;9.088;2023-02-20T02:59:59;6.50;99.90
18868;DHT22;9563;49.240;9.088;2023-02-20T03:02:29;6.50;99.90
18868;DHT22;9563;49.240;9.088;2023-02-20T03:04:58;6.50;99.90
18868;DHT22;9563;49.240;9.088;2023-02-20T03:07:28;6.40;99.90
18868;DHT22;9563;49.240;9.088;2023-02-20T03:10:00;6.40;99.90
18868;DHT22;9563;49.240;9.088;2023-02-20T03:12:31;6.40;99.90
18868;DHT22;9563;49.240;9.088;2023-02-20T03:15:02;6.40;99.90
18868;DHT22;9563;49.240;9.088;2023-02-20T03:17:52;6.40;99.90
18868;DHT22;9563;49.240;9.088;2023-02-20T03:20:21;6.40;99.90
18868;DHT22;9563;49.240;9.088;2023-02-20T03:22:52;6.40;99.90
18868;DHT22;9563;49.240;9.088;2023-02-20T03:25:24;6.30;99.90
18868;DHT22;9563;49.240;9.088;2023-02-20T03:27:55;6.30;99.90
18868;DHT22;9563;49.240;9.088;2023-02-20T03:30:27;6.30;99.90
18868;DHT22;9563;49.240;9.088;2023-02-20T03:33:01;6.30;99.90
18868;DHT22;9563;49.240;9.088;2023-02-20T03:35:48;6.30;99.90
18868;DHT22;9563;49.240;9.088;2023-02-20T03:38:37;6.30;99.90
18868;DHT22;9563;49.240;9.088;2023-02-20T03:41:25;6.20;99.90
18868;DHT22;9563;49.240;9.088;2023-02-20T03:44:11;6.20;99.90
18868;DHT22;9563;49.240;9.088;2023-02-20T03:46:40;6.20;99.90
18868;DHT22;9563;49.240;9.088;2023-02-20T03:49:11;6.20;99.90
18868;DHT22;9563;49.240;9.088;2023-02-20T03:51:39;6.20;99.90
18868;DHT22;9563;49.240;9.088;2023-02-20T03:54:07;6.10;99.90
18868;DHT22;9563;49.240;9.088;2023-02-20T03:56:39;6.20;99.90
18868;DHT22;9563;49.240;9.088;2023-02-20T03:59:11;6.20;99.90
18868;DHT22;9563;49.240;9.088;2023-02-20T04:01:41;6.10;99.90
18868;DHT22;9563;49.240;9.088;2023-02-20T04:04:11;6.10;99.90
18868;DHT22;9563;49.240;9.088;2023-02-20T04:06:40;6.10;99.90
18868;DHT22;9563;49.240;9.088;2023-02-20T04:09:11;6.10;99.90
18868;DHT22;9563;49.240;9.088;2023-02-20T04:11:42;6.00;99.90
18868;DHT22;9563;49.240;9.088;2023-02-20T04:14:10;6.00;99.90
18868;DHT22;9563;49.240;9.088;2023-02-20T04:16:41;6.00;99.90
18868;DHT22;9563;49.240;9.088;2023-02-20T04:19:09;6.00;99.90
18868;DHT22;9563;49.240;9.088;2023-02-20T04:21:39;6.00;99.90
18868;DHT22;9563;49.240;9.088;2023-02-20T04:24:11;6.00;99.90
18868;DHT22;9563;49.240;9.088;2023-02-20T04:26:39;6.00;99.90
18868;DHT22;9563;49.240;9.088;2023-02-20T04:29:06;6.00;99.90
18868;DHT22;9563;49.240;9.088;2023-02-20T04:31:33;6.00;99.90
18868;DHT22;9563;49.240;9.088;2023-02-20T04:34:00;6.00;99.90
18868;DHT22;9563;49.240;9.088;2023-02-20T04:36:27;6.00;99.90
18868;DHT22;9563;49.240;9.088;2023-02-20T04:38:54;5.90;99.90
18868;DHT22;9563;49.240;9.088;2023-02-20T04:41:22;5.90;99.90
18868;DHT22;9563;49.240;9.088;2023-02-20T04:43:49;5.90;99.90
18868;DHT22;9563;49.240;9.088;2023-02-20T04:46:36;6.00;99.90
18868;DHT22;9563;49.240;9.088;2023-02-20T04:49:03;5.90;99.90
18868;DHT22;9563;49.240;9.088;2023-02-20T04:51:30;6.00;99.90
18868;DHT22;9563;49.240;9.088;2023-02-20T04:53:56;6.00;99.90
18868;DHT22;9563;49.240;9.088;2023-02-20T04:56:24;6.00;99.90
18868;DHT22;9563;49.240;9.088;2023-02-20T04:58:51;6.00;99.90
18868;DHT22;9563;49.240;9.088;2023-02-20T05:01:18;6.00;99.90
18868;DHT22;9563;49.240;9.088;2023-02-20T05:03:45;6.10;99.90
18868;DHT22;9563;49.240;9.088;2023-02-20T05:06:12;6.10;99.90
18868;DHT22;9563;49.240;9.088;2023-02-20T05:08:38;6.10;99.90
18868;DHT22;9563;49.240;9.088;2023-02-20T05:11:05;6.10;99.90
18868;DHT22;9563;49.240;9.088;2023-02-20T05:13:33;6.10;99.90
18868;DHT22;9563;49.240;9.088;2023-02-20T05:16:00;6.10;99.90
18868;DHT22;9563;49.240;9.088;2023-02-20T05:18:28;6.10;99.90
18868;DHT22;9563;49.240;9.088;2023-02-20T05:20:55;6.20;99.90
18868;DHT22;9563;49.240;9.088;2023-02-20T05:23:39;6.20;99.90
18868;DHT22;9563;49.240;9.088;2023-02-20T05:26:08;6.20;99.90
18868;DHT22;9563;49.240;9.088;2023-02-20T05:28:37;6.20;99.90
18868;DHT22;9563;49.240;9.088;2023-02-20T05:31:05;6.20;99.90
18868;DHT22;9563;49.240;9.088;2023-02-20T05:33:32;6.20;99.90
18868;DHT22;9563;49.240;9.088;2023-02-20T05:36:00;6.20;99.90
18868;DHT22;9563;49.240;9.088;2023-02-20T05:38:27;6.10;99.90
18868;DHT22;9563;49.240;9.088;2023-02-20T05:40:54;6.20;99.90
18868;DHT22;9563;49.240;9.088;2023-02-20T05:43:20;6.20;99.90
18868;DHT22;9563;49.240;9.088;2023-02-20T05:45:48;6.20;99.90
18868;DHT22;9563;49.240;9.088;2023-02-20T05:48:15;6.20;99.90
18868;DHT22;9563;49.240;9.088;2023-02-20T05:50:42;6.20;99.90
18868;DHT22;9563;49.240;9.088;2023-02-20T05:53:09;6.30;99.90
18868;DHT22;9563;49.240;9.088;2023-02-20T05:55:36;6.30;99.90
18868;DHT22;9563;49.240;9.088;2023-02-20T05:58:02;6.30;99.90
18868;DHT22;9563;49.240;9.088;2023-02-20T06:00:29;6.30;99.90
18868;DHT22;9563;49.240;9.088;2023-02-20T06:02:58;6.30;99.90
18868;DHT22;9563;49.240;9.088;2023-02-20T06:05:24;6.40;99.90
18868;DHT22;9563;49.240;9.088;2023-02-20T06:07:52;6.40;99.90
18868;DHT22;9563;49.240;9.088;2023-02-20T06:10:20;6.40;99.90
18868;DHT22;9563;49.240;9.088;2023-02-20T06:12:46;6.30;99.90
18868;DHT22;9563;49.240;9.088;2023-02-20T06:15:13;6.30;99.90
18868;DHT22;9563;49.240;9.088;2023-02-20T06:17:40;6.30;99.90
18868;DHT22;9563;49.240;9.088;2023-02-20T06:20:09;6.30;99.90
18868;DHT22;9563;49.240;9.088;2023-02-20T06:22:36;6.30;99.90
18868;DHT22;9563;49.240;9.088;2023-02-20T06:25:03;6.40;99.90
18868;DHT22;9563;49.240;9.088;2023-02-20T06:27:30;6.40;99.90
18868;DHT22;9563;49.240;9.088;2023-02-20T06:29:57;6.40;99.90
18868;DHT22;9563;49.240;9.088;2023-02-20T06:32:24;6.40;99.90
18868;DHT22;9563;49.240;9.088;2023-02-20T06:34:51;6.40;99.90
18868;DHT22;9563;49.240;9.088;2023-02-20T06:37:29;6.40;99.90
18868;DHT22;9563;49.240;9.088;2023-02-20T06:39:55;6.40;99.90
18868;DHT22;9563;49.240;9.088;2023-02-20T06:42:22;6.40;99.90
18868;DHT22;9563;49.240;9.088;2023-02-20T06:44:49;6.40;99.90
18868;DHT22;9563;49.240;9.088;2023-02-20T06:47:16;6.40;99.90
18868;DHT22;9563;49.240;9.088;2023-02-20T06:49:43;6.40;99.90
18868;DHT22;9563;49.240;9.088;2023-02-20T06:52:09;6.40;99.90
18868;DHT22;9563;49.240;9.088;2023-02-20T06:54:38;6.40;99.90
18868;DHT22;9563;49.240;9.088;2023-02-20T06:57:05;6.40;99.90
18868;DHT22;9563;49.240;9.088;2023-02-20T06:59:32;6.40;99.90
18868;DHT22;9563;49.240;9.088;2023-02-20T07:02:04;6.50;99.90
18868;DHT22;9563;49.240;9.088;2023-02-20T07:04:31;6.50;99.90
18868;DHT22;9563;49.240;9.088;2023-02-20T07:06:58;6.50;99.90
18868;DHT22;9563;49.240;9.088;2023-02-20T07:09:26;6.60;99.90
18868;DHT22;9563;49.240;9.088;2023-02-20T07:11:54;6.70;99.90
18868;DHT22;9563;49.240;9.088;2023-02-20T07:14:21;6.80;99.90
18868;DHT22;9563;49.240;9.088;2023-02-20T07:16:48;6.90;99.90
18868;DHT22;9563;49.240;9.088;2023-02-20T07:19:15;6.90;99.90
18868;DHT22;9563;49.240;9.088;2023-02-20T07:21:41;6.90;99.90
18868;DHT22;9563;49.240;9.088;2023-02-20T07:24:08;7.00;99.90
18868;DHT22;9563;49.240;9.088;2023-02-20T07:26:35;7.00;99.90
18868;DHT22;9563;49.240;9.088;2023-02-20T07:29:06;7.10;99.90
18868;DHT22;9563;49.240;9.088;2023-02-20T07:31:33;7.20;99.90
18868;DHT22;9563;49.240;9.088;2023-02-20T07:33:59;7.30;99.90
18868;DHT22;9563;49.240;9.088;2023-02-20T07:36:26;7.40;99.90
18868;DHT22;9563;49.240;9.088;2023-02-20T07:38:54;7.50;99.90
18868;DHT22;9563;49.240;9.088;2023-02-20T07:41:22;7.50;99.90
18868;DHT22;9563;49.240;9.088;2023-02-20T07:43:49;7.60;99.90
18868;DHT22;9563;49.240;9.088;2023-02-20T07:46:17;7.60;99.90
18868;DHT22;9563;49.240;9.088;2023-02-20T07:48:44;7.70;99.90
18868;DHT22;9563;49.240;9.088;2023-02-20T07:51:11;7.80;99.90
18868;DHT22;9563;49.240;9.088;2023-02-20T07:53:38;7.70;99.90
18868;DHT22;9563;49.240;9.088;2023-02-20T07:56:05;7.80;99.90
18868;DHT22;9563;49.240;9.088;2023-02-20T07:58:32;7.80;99.90
18868;DHT22;9563;49.240;9.088;2023-02-20T08:00:59;7.70;99.90
18868;DHT22;9563;49.240;9.088;2023-02-20T08:03:27;7.50;99.90
18868;DHT22;9563;49.240;9.088;2023-02-20T08:05:54;7.50;99.90
18868;DHT22;9563;49.240;9.088;2023-02-20T08:08:21;7.40;99.90
18868;DHT22;9563;49.240;9.088;2023-02-20T08:10:50;7.40;99.90
18868;DHT22;9563;49.240;9.088;2023-02-20T08:13:17;7.50;99.90
18868;DHT22;9563;49.240;9.088;2023-02-20T08:15:44;7.70;99.90
18868;DHT22;9563;49.240;9.088;2023-02-20T08:18:12;8.00;99.90
18868;DHT22;9563;49.240;9.088;2023-02-20T08:20:41;8.30;99.90
18868;DHT22;9563;49.240;9.088;2023-02-20T08:23:15;8.60;99.90
18868;DHT22;9563;49.240;9.088;2023-02-20T08:25:43;8.90;99.90
18868;DHT22;9563;49.240;9.088;2023-02-20T08:28:09;9.10;99.90
18868;DHT22;9563;49.240;9.088;2023-02-20T08:30:36;9.20;99.90
18868;DHT22;9563;49.240;9.088;2023-02-20T08:33:03;9.30;99.90
18868;DHT22;9563;49.240;9.088;2023-02-20T08:35:31;9.50;99.90
18868;DHT22;9563;49.240;9.088;2023-02-20T08:38:00;9.60;99.90
18868;DHT22;9563;49.240;9.088;2023-02-20T08:40:27;9.60;99.90
18868;DHT22;9563;49.240;9.088;2023-02-20T08:42:54;9.60;99.90
18868;DHT22;9563;49.240;9.088;2023-02-20T08:45:22;9.60;99.90
18868;DHT22;9563;49.240;9.088;2023-02-20T08:47:49;9.90;99.90
18868;DHT22;9563;49.240;9.088;2023-02-20T08:50:17;9.90;99.90
18868;DHT22;9563;49.240;9.088;2023-02-20T08:52:44;10.20;99.90
18868;DHT22;9563;49.240;9.088;2023-02-20T08:55:13;10.40;99.90
18868;DHT22;9563;49.240;9.088;2023-02-20T08:57:42;10.20;99.90
18868;DHT22;9563;49.240;9.088;2023-02-20T09:00:10;10.20;99.90
18868;DHT22;9563;49.240;9.088;2023-02-20T09:02:37;10.20;99.90
18868;DHT22;9563;49.240;9.088;2023-02-20T09:05:05;10.30;99.90
18868;DHT22;9563;49.240;9.088;2023-02-20T09:07:32;10.30;99.90
18868;DHT22;9563;49.240;9.088;2023-02-20T09:09:59;10.20;99.90
18868;DHT22;9563;49.240;9.088;2023-02-20T09:12:27;10.00;99.90
18868;DHT22;9563;49.240;9.088;2023-02-20T09:14:55;9.90;99.90
18868;DHT22;9563;49.240;9.088;2023-02-20T09:17:25;9.90;99.90
18868;DHT22;9563;49.240;9.088;2023-02-20T09:19:52;9.70;99.90
18868;DHT22;9563;49.240;9.088;2023-02-20T09:22:21;9.60;99.90
18868;DHT22;9563;49.240;9.088;2023-02-20T09:24:48;9.70;99.90
18868;DHT22;9563;49.240;9.088;2023-02-20T09:27:15;9.70;99.90
18868;DHT22;9563;49.240;9.088;2023-02-20T09:29:44;9.80;99.90
18868;DHT22;9563;49.240;9.088;2023-02-20T09:32:12;9.90;99.90
18868;DHT22;9563;49.240;9.088;2023-02-20T09:34:39;10.00;99.90
18868;DHT22;9563;49.240;9.088;2023-02-20T09:37:06;10.10;99.90
18868;DHT22;9563;49.240;9.088;2023-02-20T09:39:34;10.20;99.90
18868;DHT22;9563;49.240;9.088;2023-02-20T09:42:13;10.20;99.90
18868;DHT22;9563;49.240;9.088;2023-02-20T09:44:53;10.30;99.90
18868;DHT22;9563;49.240;9.088;2023-02-20T09:47:32;10.50;99.90
18868;DHT22;9563;49.240;9.088;2023-02-20T09:50:03;10.80;99.90
18868;DHT22;9563;49.240;9.088;2023-02-20T09:52:33;10.90;99.90
18868;DHT22;9563;49.240;9.088;2023-02-20T09:55:09;10.90;99.90
18868;DHT22;9563;49.240;9.088;2023-02-20T09:57:37;11.00;99.90
18868;DHT22;9563;49.240;9.088;2023-02-20T10:00:09;11.00;99.90
18868;DHT22;9563;49.240;9.088;2023-02-20T10:02:39;11.00;99.90
18868;DHT22;9563;49.240;9.088;2023-02-20T10:05:14;11.10;99.90
18868;DHT22;9563;49.240;9.088;2023-02-20T10:07:45;11.20;99.90
18868;DHT22;9563;49.240;9.088;2023-02-20T10:10:18;11.30;99.90
18868;DHT22;9563;49.240;9.088;2023-02-20T10:12:53;11.40;99.90
18868;DHT22;9563;49.240;9.088;2023-02-20T10:15:25;11.70;99.90
18868;DHT22;9563;49.240;9.088;2023-02-20T10:18:01;11.70;99.90
18868;DHT22;9563;49.240;9.088;2023-02-20T10:20:38;11.60;99.90
18868;DHT22;9563;49.240;9.088;2023-02-20T10:23:12;11.50;99.90
18868;DHT22;9563;49.240;9.088;2023-02-20T10:25:45;11.50;99.90
18868;DHT22;9563;49.240;9.088;2023-02-20T10:28:15;11.90;99.90
18868;DHT22;9563;49.240;9.088;2023-02-20T10:30:46;11.80;99.90
18868;DHT22;9563;49.240;9.088;2023-02-20T10:33:21;11.70;99.90
18868;DHT22;9563;49.240;9.088;2023-02-20T10:35:53;11.70;99.90
18868;DHT22;9563;49.240;9.088;2023-02-20T10:38:26;11.80;99.90
18868;DHT22;9563;49.240;9.088;2023-02-20T10:41:01;12.10;99.90
18868;DHT22;9563;49.240;9.088;2023-02-20T10:43:35;12.40;99.90
18868;DHT22;9563;49.240;9.088;2023-02-20T10:46:08;12.60;99.90
18868;DHT22;9563;49.240;9.088;2023-02-20T10:48:39;12.80;99.90
18868;DHT22;9563;49.240;9.088;2023-02-20T10:51:09;12.90;99.90
18868;DHT22;9563;49.240;9.088;2023-02-20T10:53:41;13.10;99.90
18868;DHT22;9563;49.240;9.088;2023-02-20T10:56:13;13.20;99.90
18868;DHT22;9563;49.240;9.088;2023-02-20T10:58:46;13.20;99.90
18868;DHT22;9563;49.240;9.088;2023-02-20T11:01:20;13.20;99.90
18868;DHT22;9563;49.240;9.088;2023-02-20T11:03:51;13.00;99.90
18868;DHT22;9563;49.240;9.088;2023-02-20T11:06:25;13.30;99.90
18868;DHT22;9563;49.240;9.088;2023-02-20T11:08:54;13.50;99.90
18868;DHT22;9563;49.240;9.088;2023-02-20T11:11:27;13.40;99.90
18868;DHT22;9563;49.240;9.088;2023-02-20T11:13:57;13.50;99.90
18868;DHT22;9563;49.240;9.088;2023-02-20T11:16:30;13.50;99.90
18868;DHT22;9563;49.240;9.088;2023-02-20T11:19:05;13.30;99.90
18868;DHT22;9563;49.240;9.088;2023-02-20T11:21:38;13.20;99.90
18868;DHT22;9563;49.240;9.088;2023-02-20T11:24:30;13.40;99.90
18868;DHT22;9563;49.240;9.088;2023-02-20T11:27:07;13.10;99.90
18868;DHT22;9563;49.240;9.088;2023-02-20T11:29:40;13.00;99.90
18868;DHT22;9563;49.240;9.088;2023-02-20T11:32:30;13.10;99.90
18868;DHT22;9563;49.240;9.088;2023-02-20T11:35:20;13.50;99.90
18868;DHT22;9563;49.240;9.088;2023-02-20T11:37:49;13.60;99.90
18868;DHT22;9563;49.240;9.088;2023-02-20T11:40:21;13.60;99.90
18868;DHT22;9563;49.240;9.088;2023-02-20T11:42:49;13.70;99.90
18868;DHT22;9563;49.240;9.088;2023-02-20T11:45:21;13.80;99.90
18868;DHT22;9563;49.240;9.088;2023-02-20T11:48:06;13.70;99.90
18868;DHT22;9563;49.240;9.088;2023-02-20T11:50:38;13.80;99.90
18868;DHT22;9563;49.240;9.088;2023-02-20T11:53:06;14.00;99.90
18868;DHT22;9563;49.240;9.088;2023-02-20T11:55:34;14.20;99.90
18868;DHT22;9563;49.240;9.088;2023-02-20T11:58:01;14.50;99.90
18868;DHT22;9563;49.240;9.088;2023-02-20T12:00:42;14.90;99.90
18868;DHT22;9563;49.240;9.088;2023-02-20T12:03:12;15.00;99.90
18868;DHT22;9563;49.240;9.088;2023-02-20T12:05:41;15.00;99.90
18868;DHT22;9563;49.240;9.088;2023-02-20T12:08:33;14.70;99.90
18868;DHT22;9563;49.240;9.088;2023-02-20T12:11:06;14.80;99.90
18868;DHT22;9563;49.240;9.088;2023-02-20T12:13:37;14.60;99.90
18868;DHT22;9563;49.240;9.088;2023-02-20T12:16:12;14.60;99.90
18868;DHT22;9563;49.240;9.088;2023-02-20T12:18:49;14.50;99.90
18868;DHT22;9563;49.240;9.088;2023-02-20T12:21:26;14.40;99.90
18868;DHT22;9563;49.240;9.088;2023-02-20T12:24:42;14.40;99.90
18868;DHT22;9563;49.240;9.088;2023-02-20T12:27:24;14.70;99.90
18868;DHT22;9563;49.240;9.088;2023-02-20T12:29:58;14.90;99.90
18868;DHT22;9563;49.240;9.088;2023-02-20T12:32:36;15.00;99.90
18868;DHT22;9563;49.240;9.088;2023-02-20T12:35:24;15.00;99.90
18868;DHT22;9563;49.240;9.088;2023-02-20T12:41:05;15.30;99.90
18868;DHT22;9563;49.240;9.088;2023-02-20T12:43:41;15.20;99.90
18868;DHT22;9563;49.240;9.088;2023-02-20T12:46:16;15.50;99.90
18868;DHT22;9563;49.240;9.088;2023-02-20T12:48:56;15.90;99.90
18868;DHT22;9563;49.240;9.088;2023-02-20T12:51:37;16.00;99.90
18868;DHT22;9563;49.240;9.088;2023-02-20T12:54:26;16.30;99.90
18868;DHT22;9563;49.240;9.088;2023-02-20T12:57:05;16.50;99.90
18868;DHT22;9563;49.240;9.088;2023-02-20T12:59:39;16.30;99.90
18868;DHT22;9563;49.240;9.088;2023-02-20T13:02:17;16.10;99.90
18868;DHT22;9563;49.240;9.088;2023-02-20T13:04:50;16.10;99.90
18868;DHT22;9563;49.240;9.088;2023-02-20T13:07:25;16.00;99.90
18868;DHT22;9563;49.240;9.088;2023-02-20T13:09:59;15.60;99.90
18868;DHT22;9563;49.240;9.088;2023-02-20T13:12:27;15.40;99.90
18868;DHT22;9563;49.240;9.088;2023-02-20T13:15:06;15.20;99.90
18868;DHT22;9563;49.240;9.088;2023-02-20T13:17:42;15.10;99.90
18868;DHT22;9563;49.240;9.088;2023-02-20T13:20:16;15.10;99.90
18868;DHT22;9563;49.240;9.088;2023-02-20T13:22:59;15.10;99.90
18868;DHT22;9563;49.240;9.088;2023-02-20T13:25:40;15.20;99.90
18868;DHT22;9563;49.240;9.088;2023-02-20T13:28:38;15.20;99.90
18868;DHT22;9563;49.240;9.088;2023-02-20T13:31:15;14.90;99.90
18868;DHT22;9563;49.240;9.088;2023-02-20T13:33:44;14.80;99.90
18868;DHT22;9563;49.240;9.088;2023-02-20T13:36:17;14.80;99.90
18868;DHT22;9563;49.240;9.088;2023-02-20T13:41:59;14.90;99.90
18868;DHT22;9563;49.240;9.088;2023-02-20T13:44:42;15.20;99.90
18868;DHT22;9563;49.240;9.088;2023-02-20T13:47:31;15.30;99.90
18868;DHT22;9563;49.240;9.088;2023-02-20T13:49:59;15.40;99.90
18868;DHT22;9563;49.240;9.088;2023-02-20T13:52:35;15.20;99.90
18868;DHT22;9563;49.240;9.088;2023-02-20T13:55:21;15.20;99.90
18868;DHT22;9563;49.240;9.088;2023-02-20T13:57:53;15.30;99.90
18868;DHT22;9563;49.240;9.088;2023-02-20T14:00:28;15.30;99.90
18868;DHT22;9563;49.240;9.088;2023-02-20T14:02:59;15.20;99.90
18868;DHT22;9563;49.240;9.088;2023-02-20T14:05:28;15.20;99.90
18868;DHT22;9563;49.240;9.088;2023-02-20T14:07:56;15.20;99.90
18868;DHT22;9563;49.240;9.088;2023-02-20T14:10:27;15.20;99.90
18868;DHT22;9563;49.240;9.088;2023-02-20T14:13:01;15.10;99.90
18868;DHT22;9563;49.240;9.088;2023-02-20T14:15:30;15.30;99.90
18868;DHT22;9563;49.240;9.088;2023-02-20T14:17:58;15.40;99.90
18868;DHT22;9563;49.240;9.088;2023-02-20T14:20:32;15.30;99.90
18868;DHT22;9563;49.240;9.088;2023-02-20T14:23:17;15.50;99.90
18868;DHT22;9563;49.240;9.088;2023-02-20T14:25:55;15.80;99.90
18868;DHT22;9563;49.240;9.088;2023-02-20T14:28:24;15.80;99.90
18868;DHT22;9563;49.240;9.088;2023-02-20T14:31:06;15.60;99.90
18868;DHT22;9563;49.240;9.088;2023-02-20T14:33:33;15.50;99.90
18868;DHT22;9563;49.240;9.088;2023-02-20T14:36:18;15.30;99.90
18868;DHT22;9563;49.240;9.088;2023-02-20T14:38:56;15.20;99.90
18868;DHT22;9563;49.240;9.088;2023-02-20T14:41:25;15.10;99.90
18868;DHT22;9563;49.240;9.088;2023-02-20T14:43:55;15.00;99.90
18868;DHT22;9563;49.240;9.088;2023-02-20T14:46:25;15.10;99.90
18868;DHT22;9563;49.240;9.088;2023-02-20T14:49:04;15.30;99.90
18868;DHT22;9563;49.240;9.088;2023-02-20T14:51:31;15.30;99.90
18868;DHT22;9563;49.240;9.088;2023-02-20T14:54:00;15.20;99.90
18868;DHT22;9563;49.240;9.088;2023-02-20T14:56:27;15.10;99.90
18868;DHT22;9563;49.240;9.088;2023-02-20T14:58:57;14.90;99.90
18868;DHT22;9563;49.240;9.088;2023-02-20T15:01:35;14.90;99.90
18868;DHT22;9563;49.240;9.088;2023-02-20T15:04:06;14.80;99.90
18868;DHT22;9563;49.240;9.088;2023-02-20T15:06:37;14.70;99.90
18868;DHT22;9563;49.240;9.088;2023-02-20T15:09:05;14.70;99.90
18868;DHT22;9563;49.240;9.088;2023-02-20T15:11:33;14.70;99.90
18868;DHT22;9563;49.240;9.088;2023-02-20T15:14:02;14.60;99.90
18868;DHT22;9563;49.240;9.088;2023-02-20T15:16:30;14.60;99.90
18868;DHT22;9563;49.240;9.088;2023-02-20T15:19:00;14.60;99.90
18868;DHT22;9563;49.240;9.088;2023-02-20T15:21:33;14.60;99.90
18868;DHT22;9563;49.240;9.088;2023-02-20T15:24:27;14.60;99.90
18868;DHT22;9563;49.240;9.088;2023-02-20T15:27:13;14.70;99.90
18868;DHT22;9563;49.240;9.088;2023-02-20T15:29:42;14.70;99.90
18868;DHT22;9563;49.240;9.088;2023-02-20T15:32:18;14.70;99.90
18868;DHT22;9563;49.240;9.088;2023-02-20T15:34:50;14.70;99.90
18868;DHT22;9563;49.240;9.088;2023-02-20T15:37:21;14.60;99.90
18868;DHT22;9563;49.240;9.088;2023-02-20T15:39:49;14.60;99.90
18868;DHT22;9563;49.240;9.088;2023-02-20T15:42:18;14.70;99.90
18868;DHT22;9563;49.240;9.088;2023-02-20T15:44:46;14.90;99.90
18868;DHT22;9563;49.240;9.088;2023-02-20T15:47:13;14.90;99.90
18868;DHT22;9563;49.240;9.088;2023-02-20T15:49:40;15.00;99.90
18868;DHT22;9563;49.240;9.088;2023-02-20T15:52:15;15.00;99.90
18868;DHT22;9563;49.240;9.088;2023-02-20T15:54:47;14.90;99.90
18868;DHT22;9563;49.240;9.088;2023-02-20T15:57:17;14.70;99.90
18868;DHT22;9563;49.240;9.088;2023-02-20T15:59:46;14.60;99.90
18868;DHT22;9563;49.240;9.088;2023-02-20T16:02:15;14.60;99.90
18868;DHT22;9563;49.240;9.088;2023-02-20T16:04:45;14.60;99.90
18868;DHT22;9563;49.240;9.088;2023-02-20T16:07:12;14.70;99.90
18868;DHT22;9563;49.240;9.088;2023-02-20T16:09:39;14.90;99.90
18868;DHT22;9563;49.240;9.088;2023-02-20T16:12:08;14.90;99.90
18868;DHT22;9563;49.240;9.088;2023-02-20T16:14:36;14.90;99.90
18868;DHT22;9563;49.240;9.088;2023-02-20T16:17:22;15.00;99.90
18868;DHT22;9563;49.240;9.088;2023-02-20T16:19:49;15.10;99.90
18868;DHT22;9563;49.240;9.088;2023-02-20T16:22:16;15.10;99.90
18868;DHT22;9563;49.240;9.088;2023-02-20T16:24:44;14.90;99.90
18868;DHT22;9563;49.240;9.088;2023-02-20T16:27:17;14.90;99.90
18868;DHT22;9563;49.240;9.088;2023-02-20T16:29:44;14.70;99.90
18868;DHT22;9563;49.240;9.088;2023-02-20T16:32:18;14.30;99.90
18868;DHT22;9563;49.240;9.088;2023-02-20T16:34:45;14.00;99.90
18868;DHT22;9563;49.240;9.088;2023-02-20T16:37:13;13.70;99.90